Youngstown, Ohio
Current Conditions -  °F | °C
As of 12:51 PM on Monday 22 Dec 2014 (Local Time) from KYNG Reporting Station
Overcast Overcast  
Wind Chill: 29°   Ceiling: 4700
Heat Index: 36°   Visibility: 10mi
Dew Point: 27°   Wind: 9mph
Humidity: 70%   Direction: 130°SE
Pressure: 30.03"   Gusts: NA
Location:  41.1°N, 80.65°W
Report Text: KYNG 221751Z 13008KT 10SM BKN047 BKN120 OVC250 02/M03 A3003 RMK AO2 SLP183 T00221028 10028 21044 58022
Loading
Personal Weather Stations






























Interactive Weather Map New forecast layout! Learn more

10-Day Weather Forecast

Advertisements
Track Severe Weather on mobile